Time;durP1;ratioP1;P1;durP2;ratioP2;P2;SDS_P1;SDS_P2;PMS_P1;PMS_P2;Temp;Humidity;BMP_temperature;BMP_pressure;BME280_temperature;BME280_humidity;BME280_pressure;Samples;Min_cycle;Max_cycle;Signal;HPM_P1;HPM_P2
2021/08/10 00:01:39;;;;;;;;;3.75;3.00;;;;;24.64;45.85;101337.06;5035091;28;51164;-58
2021/08/10 00:04:04;;;;;;;;;3.50;3.50;;;;;24.62;46.05;101336.47;5017798;28;51123;-59
2021/08/10 00:06:29;;;;;;;;;2.50;2.50;;;;;24.60;45.95;101350.56;5016160;28;51120;-58
2021/08/10 00:08:55;;;;;;;;;5.50;5.25;;;;;24.59;45.96;101343.31;5017336;28;51309;-58
2021/08/10 00:11:20;;;;;;;;;4.00;3.25;;;;;24.59;45.92;101343.31;5017230;28;51015;-58
2021/08/10 00:13:45;;;;;;;;;6.50;4.00;;;;;24.57;45.92;101342.69;5019192;28;51047;-58
2021/08/10 00:16:11;;;;;;;;;5.25;4.25;;;;;24.56;46.21;101327.16;5037641;28;51109;-59
2021/08/10 00:18:36;;;;;;;;;4.00;4.00;;;;;24.54;45.98;101332.09;5036555;28;51989;-57
2021/08/10 00:21:01;;;;;;;;;2.75;2.25;;;;;24.54;46.09;101332.09;5037190;28;51103;-59
2021/08/10 00:23:27;;;;;;;;;5.00;4.75;;;;;24.53;45.83;101327.66;5037080;28;51584;-57
2021/08/10 00:25:52;;;;;;;;;4.25;4.00;;;;;24.53;45.73;101330.44;5037249;28;51165;-58
2021/08/10 00:28:18;;;;;;;;;6.00;3.75;;;;;24.52;45.95;101328.75;5036796;28;51045;-58
2021/08/10 00:30:44;;;;;;;;;2.00;2.00;;;;;24.51;45.82;101331.75;5036767;28;51035;-58
2021/08/10 00:33:11;;;;;;;;;2.25;2.25;;;;;24.51;45.86;101328.97;5037044;28;50971;-58
2021/08/10 00:35:36;;;;;;;;;5.25;4.00;;;;;24.49;46.32;101326.44;5036953;28;51004;-58
2021/08/10 00:38:02;;;;;;;;;3.25;2.00;;;;;24.48;46.13;101338.59;5036701;28;51585;-58
2021/08/10 00:40:28;;;;;;;;;3.50;2.75;;;;;24.47;46.12;101323.06;5035353;28;51310;-56
2021/08/10 00:42:54;;;;;;;;;1.75;1.00;;;;;24.47;46.14;101328.59;5036726;28;51159;-58
2021/08/10 00:45:20;;;;;;;;;3.25;3.25;;;;;24.46;46.17;101326.91;5036881;28;51018;-56
2021/08/10 00:47:46;;;;;;;;;5.25;4.25;;;;;24.45;45.71;101319.69;5035637;28;51156;-57
2021/08/10 00:50:11;;;;;;;;;3.00;3.00;;;;;24.44;46.11;101323.53;5035219;28;50927;-57
2021/08/10 00:52:36;;;;;;;;;3.75;3.75;;;;;24.44;46.35;101323.53;5036127;28;51500;-57
2021/08/10 00:55:04;;;;;;;;;4.50;4.25;;;;;24.43;46.34;101336.53;5035440;28;51349;-57
2021/08/10 00:57:29;;;;;;;;;4.25;3.25;;;;;24.42;46.47;101334.84;5036335;28;51797;-57
2021/08/10 00:59:55;;;;;;;;;4.75;4.75;;;;;24.41;46.21;101340.63;5035820;28;50954;-57
2021/08/10 01:02:20;;;;;;;;;2.00;2.00;;;;;24.42;46.31;101345.09;5036603;28;50991;-57
2021/08/10 01:04:46;;;;;;;;;6.00;3.75;;;;;24.40;46.00;101350.88;5036199;28;51117;-57
2021/08/10 01:07:29;;;;;;;;;3.25;3.25;;;;;24.40;46.33;101355.56;5036464;28;51700;-57
2021/08/10 01:10:07;;;;;;;;;4.25;3.25;;;;;24.39;46.07;101356.66;5036427;28;50986;-57
2021/08/10 01:12:41;;;;;;;;;3.00;3.00;;;;;24.38;46.25;101360.47;5036184;28;51091;-57
2021/08/10 01:15:18;;;;;;;;;6.75;5.00;;;;;24.38;46.09;101366.00;5036211;28;50922;-57
2021/08/10 01:17:57;;;;;;;;;4.00;4.00;;;;;24.36;46.48;101363.47;5034467;28;52357;-57
2021/08/10 01:20:50;;;;;;;;;5.00;5.00;;;;;24.35;46.71;101372.03;5035592;28;50994;-57
2021/08/10 01:23:21;;;;;;;;;4.75;4.50;;;;;24.34;46.67;101370.34;5036435;28;51200;-58
2021/08/10 01:26:05;;;;;;;;;4.00;2.50;;;;;24.33;46.84;101368.66;5035951;28;51148;-57
2021/08/10 01:28:41;;;;;;;;;4.75;4.00;;;;;24.32;46.91;101364.19;5015829;28;51860;-57
2021/08/10 01:31:06;;;;;;;;;4.25;4.25;;;;;24.32;47.04;101355.91;5015996;28;50900;-57
2021/08/10 01:33:36;;;;;;;;;6.00;5.67;;;;;24.30;47.11;101346.94;5016149;28;51090;-58
2021/08/10 01:36:02;;;;;;;;;4.75;3.25;;;;;24.29;47.37;101342.50;5016178;28;51158;-58
2021/08/10 01:38:30;;;;;;;;;5.25;4.00;;;;;24.28;47.28;101351.84;5015748;28;51770;-57
2021/08/10 01:40:59;;;;;;;;;3.00;3.00;;;;;24.27;47.46;101347.41;5015927;28;51027;-59
2021/08/10 01:43:25;;;;;;;;;6.00;3.75;;;;;24.28;47.40;101351.84;5016008;28;51054;-58
2021/08/10 01:45:51;;;;;;;;;4.75;4.00;;;;;24.25;47.61;101344.88;5016039;28;51313;-57
2021/08/10 01:48:18;;;;;;;;;5.25;3.75;;;;;24.25;47.70;101344.03;5015255;28;52025;-57
2021/08/10 01:50:45;;;;;;;;;5.25;3.50;;;;;24.24;47.99;101342.34;5020824;28;51077;-58
2021/08/10 01:53:12;;;;;;;;;3.00;3.00;;;;;24.24;47.81;101342.34;5035485;28;51182;-58
2021/08/10 01:55:38;;;;;;;;;5.75;4.00;;;;;24.23;48.01;101344.28;5034531;28;50896;-58
2021/08/10 01:58:04;;;;;;;;;4.75;4.00;;;;;24.22;47.95;101348.13;5035277;28;50951;-58
2021/08/10 02:00:31;;;;;;;;;6.00;4.00;;;;;24.23;48.05;101354.50;5035768;28;51036;-58
2021/08/10 02:02:58;;;;;;;;;6.25;5.25;;;;;24.21;48.56;101357.50;5035596;28;51193;-57
2021/08/10 02:05:23;;;;;;;;;5.00;5.00;;;;;24.20;48.13;101361.38;5035530;28;51070;-57
2021/08/10 02:07:49;;;;;;;;;4.00;4.00;;;;;24.19;48.58;101366.06;5035270;28;52081;-58
2021/08/10 02:10:16;;;;;;;;;4.00;3.50;;;;;24.19;48.60;101365.22;5035636;28;51496;-58
2021/08/10 02:12:42;;;;;;;;;4.75;4.00;;;;;24.17;48.68;101359.88;5036863;28;51277;-57
2021/08/10 02:15:08;;;;;;;;;3.50;3.50;;;;;24.18;48.73;101360.75;5039102;28;51242;-57
2021/08/10 02:17:34;;;;;;;;;3.75;3.25;;;;;24.17;48.58;101359.03;5054280;28;52858;-58
2021/08/10 02:19:59;;;;;;;;;4.50;3.25;;;;;24.16;48.97;101362.88;5038591;28;51062;-57
2021/08/10 02:22:28;;;;;;;;;6.00;4.25;;;;;24.15;48.84;101350.97;5038929;28;51063;-58
2021/08/10 02:24:59;;;;;;;;;2.00;2.00;;;;;24.15;49.15;101356.50;5039247;28;51094;-58
2021/08/10 02:27:51;;;;;;;;;3.75;3.75;;;;;24.15;49.42;101345.44;5038354;28;51069;-59
2021/08/10 02:30:20;;;;;;;;;5.00;4.50;;;;;24.14;49.16;101343.75;5036118;28;51432;-57
2021/08/10 02:32:47;;;;;;;;;4.50;4.00;;;;;24.14;49.33;101353.97;5038623;28;51352;-57
2021/08/10 02:35:18;;;;;;;;;5.75;4.50;;;;;24.14;49.31;101348.44;5038649;28;51276;-58
2021/08/10 02:37:44;;;;;;;;;6.75;5.00;;;;;24.14;49.28;101345.69;5038418;28;51882;-57
2021/08/10 02:40:13;;;;;;;;;7.50;5.00;;;;;24.14;49.34;101349.28;5038808;28;50959;-57
2021/08/10 02:42:41;;;;;;;;;2.75;2.75;;;;;24.13;49.43;101349.53;5038712;28;51215;-59
2021/08/10 02:45:07;;;;;;;;;4.00;3.00;;;;;24.13;49.61;101352.28;5038848;28;51245;-57
2021/08/10 02:47:32;;;;;;;;;3.00;3.00;;;;;24.13;49.40;101349.53;5038250;28;51805;-57
2021/08/10 02:49:57;;;;;;;;;4.25;4.25;;;;;24.11;49.62;101344.22;5038335;28;50978;-57
2021/08/10 02:52:23;;;;;;;;;4.25;2.75;;;;;24.10;49.48;101345.31;5038661;28;50945;-57
2021/08/10 02:54:49;;;;;;;;;5.75;3.50;;;;;24.10;49.63;101342.53;5038515;28;51067;-57
2021/08/10 02:57:25;;;;;;;;;4.75;3.75;;;;;24.10;49.69;101345.31;5038288;28;51585;-57
2021/08/10 02:59:56;;;;;;;;;3.00;3.00;;;;;24.10;49.70;101347.25;5053850;28;51313;-58
2021/08/10 03:02:24;;;;;;;;;4.00;4.00;;;;;24.10;49.76;101341.72;5038869;28;51142;-57
2021/08/10 03:04:59;;;;;;;;;4.00;4.00;;;;;24.10;49.94;101342.53;5038598;28;51046;-58
2021/08/10 03:07:26;;;;;;;;;5.00;3.50;;;;;24.08;49.88;101339.19;5038152;28;51128;-58
2021/08/10 03:09:55;;;;;;;;;3.00;3.00;;;;;24.09;49.88;101337.25;5038319;28;51372;-57
2021/08/10 03:12:22;;;;;;;;;6.25;4.75;;;;;24.08;49.70;101341.94;5038463;28;51100;-57
2021/08/10 03:14:51;;;;;;;;;3.75;3.75;;;;;24.08;49.73;101335.56;5038222;28;51074;-57
2021/08/10 03:17:19;;;;;;;;;3.75;3.75;;;;;24.08;49.49;101346.63;5037985;28;52147;-57
2021/08/10 03:19:45;;;;;;;;;5.00;4.00;;;;;24.06;49.63;101344.06;5037436;28;51173;-57
2021/08/10 03:22:13;;;;;;;;;4.50;3.00;;;;;24.08;49.47;101350.25;5037911;28;51129;-57
2021/08/10 03:24:41;;;;;;;;;4.25;4.25;;;;;24.05;49.68;101347.94;5038439;28;51181;-57
2021/08/10 03:27:08;;;;;;;;;2.50;2.25;;;;;24.07;49.50;101350.44;5037858;28;52037;-57
2021/08/10 03:29:35;;;;;;;;;5.00;5.00;;;;;24.06;49.72;101341.31;5037992;28;51058;-57
2021/08/10 03:32:02;;;;;;;;;6.75;3.00;;;;;24.05;50.04;101336.84;5038213;28;51204;-57
2021/08/10 03:34:28;;;;;;;;;4.50;3.75;;;;;24.05;49.74;101344.31;5037903;28;50988;-57
2021/08/10 03:36:54;;;;;;;;;4.50;4.00;;;;;24.04;49.51;101335.16;5037750;28;51778;-57
2021/08/10 03:39:20;;;;;;;;;4.25;3.50;;;;;24.04;49.89;101328.78;5037905;28;51177;-57
2021/08/10 03:41:46;;;;;;;;;5.75;4.00;;;;;24.03;50.14;101327.94;5037585;28;51152;-57
2021/08/10 03:44:13;;;;;;;;;3.75;3.75;;;;;24.03;49.69;101325.19;5038008;28;51225;-57
2021/08/10 03:46:39;;;;;;;;;1.25;1.25;;;;;24.03;49.46;101324.34;5037555;28;51986;-57
2021/08/10 03:49:04;;;;;;;;;4.00;3.50;;;;;24.03;49.84;101329.88;5037486;28;51029;-58
2021/08/10 03:51:30;;;;;;;;;5.00;4.00;;;;;24.03;49.97;101336.25;5037382;28;51120;-57
2021/08/10 03:53:56;;;;;;;;;4.25;3.75;;;;;24.02;49.56;101331.81;5037630;28;51119;-57
2021/08/10 03:56:24;;;;;;;;;6.50;5.25;;;;;24.02;50.12;101337.34;5037280;28;51925;-58
2021/08/10 03:58:52;;;;;;;;;3.25;3.25;;;;;24.02;49.84;101323.50;5037422;28;51055;-57
2021/08/10 04:01:20;;;;;;;;;3.75;3.75;;;;;24.01;49.88;101335.66;5037624;28;51162;-57
2021/08/10 04:03:47;;;;;;;;;3.50;3.50;;;;;24.02;50.05;101337.34;5037516;28;50979;-57
2021/08/10 04:06:13;;;;;;;;;5.00;4.00;;;;;24.01;49.85;101338.41;5037062;28;52073;-57
2021/08/10 04:08:39;;;;;;;;;5.25;2.75;;;;;24.01;50.12;101343.09;5036123;28;51063;-57
2021/08/10 04:11:04;;;;;;;;;5.25;5.25;;;;;24.00;49.90;101342.25;5037503;28;51197;-58
2021/08/10 04:13:31;;;;;;;;;5.00;5.00;;;;;24.00;50.05;101339.50;5037671;28;51286;-58
2021/08/10 04:16:00;;;;;;;;;7.00;4.25;;;;;23.98;50.14;101338.88;5037000;28;51127;-57
2021/08/10 04:18:28;;;;;;;;;4.75;3.50;;;;;23.99;50.27;101346.13;5036924;28;51353;-57
2021/08/10 04:20:53;;;;;;;;;5.50;4.00;;;;;23.98;50.17;101335.28;5036980;28;50957;-58
2021/08/10 04:23:20;;;;;;;;;4.25;4.25;;;;;23.98;50.20;101354.66;5037264;28;51260;-58
2021/08/10 04:25:46;;;;;;;;;3.75;3.75;;;;;23.97;49.93;101348.28;5036733;28;51989;-60
2021/08/10 04:28:12;;;;;;;;;4.00;4.00;;;;;23.97;49.92;101350.16;5036828;28;51556;-58
2021/08/10 04:30:39;;;;;;;;;5.50;4.00;;;;;23.96;49.92;101354.84;5037111;28;51058;-58
2021/08/10 04:33:05;;;;;;;;;4.00;4.00;;;;;23.96;50.08;101354.84;5035735;28;51082;-58
2021/08/10 04:35:30;;;;;;;;;5.25;4.25;;;;;23.95;49.74;101353.16;5035668;28;51907;-59
2021/08/10 04:37:56;;;;;;;;;3.75;3.75;;;;;23.95;49.79;101353.16;5037004;28;51242;-58
2021/08/10 04:40:21;;;;;;;;;6.50;4.75;;;;;23.96;50.20;101356.78;5036822;28;50991;-58
2021/08/10 04:42:47;;;;;;;;;7.50;5.75;;;;;23.96;50.48;101362.31;5036960;28;51023;-59
2021/08/10 04:45:12;;;;;;;;;6.00;4.75;;;;;23.95;50.09;101355.94;5036516;28;51671;-59
2021/08/10 04:47:37;;;;;;;;;3.75;3.25;;;;;23.94;50.06;101357.03;5036614;28;50995;-58
2021/08/10 04:50:03;;;;;;;;;5.25;4.25;;;;;23.94;50.06;101353.41;5036553;28;51087;-58
2021/08/10 04:52:29;;;;;;;;;4.00;3.50;;;;;23.93;50.52;101358.09;5036953;28;51264;-58
2021/08/10 04:54:57;;;;;;;;;7.00;4.00;;;;;23.93;50.22;101360.88;5036289;28;51671;-58
2021/08/10 04:57:23;;;;;;;;;4.00;4.00;;;;;23.92;50.84;101358.34;5036568;28;50965;-58
2021/08/10 04:59:50;;;;;;;;;5.00;4.50;;;;;23.90;50.70;101364.94;5036744;28;51070;-57
2021/08/10 05:02:15;;;;;;;;;6.25;5.00;;;;;23.90;50.52;101361.34;5036663;28;50983;-58
2021/08/10 05:04:42;;;;;;;;;6.50;5.25;;;;;23.90;50.55;101369.66;5035981;28;52546;-57
2021/08/10 05:07:08;;;;;;;;;9.00;5.00;;;;;23.89;50.99;101368.81;5036299;28;50974;-58
2021/08/10 05:09:33;;;;;;;;;3.25;3.25;;;;;23.88;50.58;101366.28;5036412;28;51149;-57
2021/08/10 05:11:58;;;;;;;;;4.50;4.25;;;;;23.87;51.02;101368.19;5036696;28;50944;-59
2021/08/10 05:14:24;;;;;;;;;4.50;4.00;;;;;23.87;50.99;101372.88;5035821;28;51374;-58
2021/08/10 05:16:49;;;;;;;;;5.25;4.75;;;;;23.88;50.86;101369.88;5036363;28;51152;-58
2021/08/10 05:19:15;;;;;;;;;10.00;6.25;;;;;23.87;50.91;101378.41;5035971;28;51213;-57
2021/08/10 05:21:40;;;;;;;;;6.00;4.00;;;;;23.87;50.53;101372.88;5036263;28;50967;-58
2021/08/10 05:24:05;;;;;;;;;5.00;4.50;;;;;23.85;51.17;101367.56;5036116;28;51963;-61
2021/08/10 05:26:31;;;;;;;;;5.00;5.00;;;;;23.85;51.02;101373.09;5036194;28;51084;-58
2021/08/10 05:28:56;;;;;;;;;6.50;5.00;;;;;23.86;50.93;101368.41;5036020;28;50974;-56
2021/08/10 05:31:21;;;;;;;;;5.00;5.00;;;;;23.85;50.75;101373.09;5036039;28;51438;-57
2021/08/10 05:33:47;;;;;;;;;4.00;4.00;;;;;23.84;51.12;101370.56;5035614;28;52724;-58
2021/08/10 05:36:12;;;;;;;;;6.00;6.00;;;;;23.84;50.88;101376.09;5035828;28;51068;-58
2021/08/10 05:38:38;;;;;;;;;5.50;4.50;;;;;23.83;51.05;101374.41;5036003;28;51097;-57
2021/08/10 05:41:03;;;;;;;;;5.25;4.00;;;;;23.81;51.14;101382.94;5036072;28;51415;-57
2021/08/10 05:43:29;;;;;;;;;7.25;6.00;;;;;23.82;51.02;101390.16;5033726;28;51436;-57
2021/08/10 05:45:54;;;;;;;;;6.75;6.00;;;;;23.82;51.20;101383.78;5035431;28;50969;-57
2021/08/10 05:48:21;;;;;;;;;3.25;3.25;;;;;23.79;51.37;101379.56;5035303;28;53336;-57
2021/08/10 05:50:47;;;;;;;;;4.50;4.00;;;;;23.79;51.49;101378.72;5044591;28;51043;-57
2021/08/10 05:53:12;;;;;;;;;4.00;4.00;;;;;23.78;50.95;101374.28;5015572;28;51827;-57
2021/08/10 05:55:38;;;;;;;;;6.00;3.75;;;;;23.78;51.32;101377.03;5015545;28;51074;-57
2021/08/10 05:58:03;;;;;;;;;7.00;5.25;;;;;23.76;50.78;101368.09;5015705;28;51131;-58
2021/08/10 06:00:28;;;;;;;;;5.00;4.00;;;;;23.77;50.81;101365.13;5031040;28;50999;-58
2021/08/10 06:02:54;;;;;;;;;6.00;4.75;;;;;23.76;51.17;101377.28;5015303;28;56152;-58
2021/08/10 06:05:20;;;;;;;;;8.50;5.25;;;;;23.78;51.24;101374.28;5015470;28;51509;-58
2021/08/10 06:07:45;;;;;;;;;3.50;3.50;;;;;23.78;51.09;101377.03;5030824;28;51142;-58
2021/08/10 06:10:11;;;;;;;;;6.00;4.25;;;;;23.77;51.14;101390.03;5016098;28;51036;-58
2021/08/10 06:12:36;;;;;;;;;4.75;4.75;;;;;23.77;51.17;101381.72;5015582;28;51819;-58
2021/08/10 06:15:02;;;;;;;;;4.75;4.50;;;;;23.77;51.33;101389.19;5015421;28;51053;-58
2021/08/10 06:17:27;;;;;;;;;6.25;5.25;;;;;23.76;50.74;101393.88;5015621;28;51147;-58
2021/08/10 06:19:53;;;;;;;;;6.00;4.50;;;;;23.75;50.88;101383.00;5014895;28;51080;-58
2021/08/10 06:22:18;;;;;;;;;4.25;3.00;;;;;23.74;51.31;101393.22;5015246;28;51047;-57
2021/08/10 06:24:43;;;;;;;;;6.00;5.00;;;;;23.74;50.65;101387.69;5015243;28;51090;-58
2021/08/10 06:27:09;;;;;;;;;4.25;4.25;;;;;23.74;51.32;101387.69;5026179;28;51107;-57
2021/08/10 06:29:34;;;;;;;;;5.00;5.00;;;;;23.73;51.22;101379.63;5035533;28;51361;-58
2021/08/10 06:31:59;;;;;;;;;6.50;6.00;;;;;23.72;51.38;101386.25;5035109;28;52053;-58
2021/08/10 06:34:24;;;;;;;;;4.75;3.00;;;;;23.73;50.79;101385.16;5034854;28;50975;-59
2021/08/10 06:36:50;;;;;;;;;5.00;3.50;;;;;23.72;51.15;101378.78;5035112;28;50975;-59
2021/08/10 06:39:15;;;;;;;;;9.00;5.25;;;;;23.72;50.92;101383.47;5035177;28;51121;-56
2021/08/10 06:41:41;;;;;;;;;7.50;5.00;;;;;23.72;51.69;101384.31;5034868;28;51719;-56
2021/08/10 06:44:06;;;;;;;;;5.00;4.50;;;;;23.73;51.59;101382.41;5035107;28;50966;-58
2021/08/10 06:46:31;;;;;;;;;6.50;5.50;;;;;23.75;51.49;101383.00;5034990;28;50997;-58
2021/08/10 06:48:57;;;;;;;;;5.00;5.00;;;;;23.76;51.57;101382.81;5035054;28;51186;-58
2021/08/10 06:51:23;;;;;;;;;6.75;5.25;;;;;23.76;51.91;101379.16;5034384;28;51078;-58
2021/08/10 06:53:48;;;;;;;;;3.25;3.25;;;;;23.75;51.24;101383.00;5035015;28;51053;-58
2021/08/10 06:56:13;;;;;;;;;7.00;3.75;;;;;23.75;51.50;101385.78;5034906;28;51692;-58
2021/08/10 06:58:39;;;;;;;;;4.00;4.00;;;;;23.75;51.25;101383.00;5037189;28;51196;-58
2021/08/10 07:01:05;;;;;;;;;3.75;3.75;;;;;23.75;51.17;101385.78;5037692;28;52881;-58
2021/08/10 07:03:32;;;;;;;;;7.00;3.50;;;;;23.74;51.14;101379.41;5038127;28;51308;-57
2021/08/10 07:05:57;;;;;;;;;7.25;6.00;;;;;23.73;51.21;101383.25;5038284;28;51089;-58
2021/08/10 07:08:23;;;;;;;;;4.00;4.00;;;;;23.72;51.53;101384.31;5036921;28;51371;-58
2021/08/10 07:10:48;;;;;;;;;7.25;7.00;;;;;23.75;51.73;101389.38;5036670;28;52998;-58
2021/08/10 07:13:13;;;;;;;;;4.25;3.50;;;;;23.77;51.58;101389.19;5037880;28;51073;-58
2021/08/10 07:15:39;;;;;;;;;7.50;5.00;;;;;23.77;51.35;101390.03;5038042;28;51023;-57
2021/08/10 07:18:04;;;;;;;;;8.00;5.00;;;;;23.79;51.85;101387.88;5037875;28;51054;-59
2021/08/10 07:20:29;;;;;;;;;5.25;5.25;;;;;23.79;51.84;101398.94;5037457;28;51005;-60
2021/08/10 07:22:55;;;;;;;;;7.50;6.00;;;;;23.79;51.20;101398.94;5037928;28;51200;-60
2021/08/10 07:25:21;;;;;;;;;4.00;4.00;;;;;23.79;51.05;101400.84;5037936;28;51510;-60
2021/08/10 07:27:47;;;;;;;;;5.50;4.75;;;;;23.78;51.37;101400.00;5037714;28;50939;-59
2021/08/10 07:30:13;;;;;;;;;5.75;4.50;;;;;23.77;51.04;101406.63;5037158;28;51631;-59
2021/08/10 07:32:39;;;;;;;;;6.25;5.00;;;;;23.77;50.85;101403.00;5037838;28;51312;-60
2021/08/10 07:35:06;;;;;;;;;3.50;3.50;;;;;23.77;51.14;101403.00;5037342;28;51091;-59
2021/08/10 07:37:31;;;;;;;;;6.50;5.00;;;;;23.75;50.74;101403.22;5032994;28;51192;-59
2021/08/10 07:39:57;;;;;;;;;7.00;4.75;;;;;23.76;51.10;101406.84;5033634;28;51604;-59
2021/08/10 07:42:22;;;;;;;;;7.50;5.75;;;;;23.75;50.73;101405.97;5036622;28;51395;-59
2021/08/10 07:44:48;;;;;;;;;5.00;4.75;;;;;23.76;51.33;101404.06;5036674;28;51272;-58
2021/08/10 07:47:13;;;;;;;;;8.00;6.00;;;;;23.76;51.92;101398.53;5033236;28;51220;-59
2021/08/10 07:49:39;;;;;;;;;6.00;4.25;;;;;23.76;51.62;101404.94;5036197;28;52284;-59
2021/08/10 07:52:05;;;;;;;;;7.50;6.50;;;;;23.78;51.72;101404.69;5033163;28;51804;-56
2021/08/10 07:54:30;;;;;;;;;6.50;3.75;;;;;23.79;52.13;101406.38;5033501;28;50931;-55
2021/08/10 07:56:57;;;;;;;;;8.25;6.00;;;;;23.79;51.89;101401.69;5035290;28;51076;-59
2021/08/10 07:59:22;;;;;;;;;5.25;4.50;;;;;23.79;51.72;101404.47;5037197;28;51154;-57
2021/08/10 08:01:48;;;;;;;;;5.00;4.50;;;;;23.80;51.47;101410.84;5035764;28;51069;-58
2021/08/10 08:04:13;;;;;;;;;6.00;6.00;;;;;23.80;51.84;101413.59;5036773;28;51109;-59
2021/08/10 08:06:38;;;;;;;;;7.25;5.50;;;;;23.80;51.39;101414.44;5037264;28;51142;-58
2021/08/10 08:09:04;;;;;;;;;5.75;5.00;;;;;23.80;51.13;101408.91;5033311;28;50915;-59
2021/08/10 08:11:29;;;;;;;;;4.50;4.50;;;;;23.80;51.38;101416.38;5036103;28;51144;-57
2021/08/10 08:13:54;;;;;;;;;5.50;4.00;;;;;23.80;51.66;101414.44;5044544;28;51159;-58
2021/08/10 08:16:20;;;;;;;;;4.75;4.50;;;;;23.80;51.43;101417.22;5034271;28;51045;-58
2021/08/10 08:18:45;;;;;;;;;6.75;5.00;;;;;23.81;51.18;101409.75;5036241;28;52261;-60
2021/08/10 08:21:11;;;;;;;;;8.25;5.75;;;;;23.81;51.54;101415.28;5037141;28;50974;-58
2021/08/10 08:23:38;;;;;;;;;5.25;5.00;;;;;23.81;51.71;101416.13;5024130;28;51234;-56
2021/08/10 08:26:05;;;;;;;;;5.75;5.75;;;;;23.81;51.77;101407.84;5032805;28;51169;-56
2021/08/10 08:28:31;;;;;;;;;5.50;4.50;;;;;23.81;51.38;101410.59;5036467;28;51909;-58
2021/08/10 08:30:57;;;;;;;;;7.00;5.50;;;;;23.80;51.71;101408.91;5030482;28;51411;-58
2021/08/10 08:33:22;;;;;;;;;7.25;6.25;;;;;23.81;51.66;101407.00;5028687;28;51231;-57
2021/08/10 08:35:47;;;;;;;;;7.25;6.00;;;;;23.82;51.87;101422.50;5030656;28;51233;-58
2021/08/10 08:38:14;;;;;;;;;6.75;5.00;;;;;23.80;51.32;101417.22;5029337;28;52897;-59
2021/08/10 08:40:44;;;;;;;;;7.00;5.00;;;;;23.81;52.08;101410.59;5031341;28;51062;-58
2021/08/10 08:43:10;;;;;;;;;6.25;5.75;;;;;23.82;51.52;101415.06;5024588;28;51054;-59
2021/08/10 08:45:35;;;;;;;;;6.00;4.25;;;;;23.82;51.44;101411.44;5030783;28;51340;-58
2021/08/10 08:48:02;;;;;;;;;7.25;5.25;;;;;23.83;51.36;101402.06;5031598;28;51938;-57
2021/08/10 08:50:30;;;;;;;;;5.00;4.50;;;;;23.82;51.76;101401.22;5031448;28;51159;-59
2021/08/10 08:52:58;;;;;;;;;6.50;5.25;;;;;23.83;51.70;101408.44;5032854;28;51202;-57
2021/08/10 08:55:25;;;;;;;;;5.50;5.50;;;;;23.84;51.99;101406.53;5030662;28;51262;-59
2021/08/10 08:57:50;;;;;;;;;5.50;3.00;;;;;23.82;51.66;101406.75;5032235;28;52003;-57
2021/08/10 09:00:17;;;;;;;;;6.25;6.25;;;;;23.82;51.76;101401.22;5031966;28;51095;-59
2021/08/10 09:02:44;;;;;;;;;4.50;4.50;;;;;23.83;52.03;101397.38;5024338;28;51449;-57
2021/08/10 09:05:14;;;;;;;;;7.25;5.00;;;;;23.81;51.50;101393.16;5033987;28;51346;-58
2021/08/10 09:07:40;;;;;;;;;6.00;5.00;;;;;23.82;52.03;101404.00;5021410;28;52797;-58
2021/08/10 09:10:15;;;;;;;;;4.00;2.00;;;;;23.82;51.81;101401.22;5022082;28;51330;-54
2021/08/10 09:12:45;;;;;;;;;5.75;5.75;;;;;23.83;52.02;101404.84;5019001;28;51845;-54
2021/08/10 09:15:27;;;;;;;;;6.50;4.75;;;;;23.83;51.75;101402.91;5026725;28;51170;-55
2021/08/10 09:17:52;;;;;;;;;5.00;4.00;;;;;23.84;51.95;101395.47;5020256;28;51988;-55
2021/08/10 09:20:21;;;;;;;;;6.25;6.00;;;;;23.85;52.02;101406.28;5020186;28;52576;-56
2021/08/10 09:22:49;;;;;;;;;6.00;5.00;;;;;23.86;52.08;101408.00;5019126;28;52129;-56
2021/08/10 09:25:16;;;;;;;;;7.50;6.25;;;;;23.87;52.41;101408.84;5035687;28;51106;-56
2021/08/10 09:27:42;;;;;;;;;5.75;5.00;;;;;23.90;52.40;101405.63;5035402;28;51068;-51
2021/08/10 09:30:30;;;;;;;;;4.75;4.75;;;;;23.92;52.86;101400.69;5035746;28;51041;-53
2021/08/10 09:33:01;;;;;;;;;7.00;5.00;;;;;23.95;52.83;101399.38;5035010;28;51251;-52
2021/08/10 09:35:44;;;;;;;;;8.50;4.00;;;;;23.99;52.62;101397.84;5029335;28;51236;-53
2021/08/10 09:38:20;;;;;;;;;9.25;4.75;;;;;24.00;52.72;101389.31;5033173;28;50942;-52
2021/08/10 09:40:53;;;;;;;;;4.00;4.00;;;;;24.04;52.40;101395.22;5031851;28;51157;-52
2021/08/10 09:43:32;;;;;;;;;6.25;6.00;;;;;24.05;52.25;101383.91;5034816;28;51070;-53
2021/08/10 09:46:03;;;;;;;;;2.50;2.50;;;;;24.08;51.72;101377.09;5035575;28;51131;-53
2021/08/10 09:48:29;;;;;;;;;5.25;3.75;;;;;24.08;51.91;101383.47;5034874;28;51306;-50
2021/08/10 09:51:08;;;;;;;;;8.50;6.25;;;;;24.08;52.47;101372.38;5029242;28;51235;-52
2021/08/10 09:53:34;;;;;;;;;6.25;5.25;;;;;24.12;52.57;101373.59;5032271;28;51178;-53
2021/08/10 09:55:59;;;;;;;;;7.50;5.00;;;;;24.13;52.40;101371.66;5014404;28;51585;-51
2021/08/10 09:58:25;;;;;;;;;4.00;4.00;;;;;24.15;52.57;101366.75;5016955;28;52323;-65
2021/08/10 10:00:51;;;;;;;;;6.50;5.25;;;;;24.15;52.56;101375.88;5025839;28;51165;-60
2021/08/10 10:03:18;;;;;;;;;4.75;4.75;;;;;24.16;52.34;101371.19;5028226;28;51074;-59
2021/08/10 10:05:44;;;;;;;;;6.00;6.00;;;;;24.16;52.64;101369.28;5032107;28;51191;-59
2021/08/10 10:08:18;;;;;;;;;5.50;5.50;;;;;24.17;51.88;101370.94;5033187;28;51704;-59
2021/08/10 10:10:44;;;;;;;;;5.50;4.50;;;;;24.17;52.43;101376.50;5028565;28;50978;-59
2021/08/10 10:13:12;;;;;;;;;5.00;4.00;;;;;24.18;52.68;101372.66;5029981;28;51066;-59
2021/08/10 10:15:38;;;;;;;;;4.25;4.25;;;;;24.18;52.16;101380.97;5031702;28;51546;-60
2021/08/10 10:18:07;;;;;;;;;4.50;3.50;;;;;24.19;52.23;101374.34;5033667;28;51871;-59
2021/08/10 10:20:34;;;;;;;;;6.00;4.75;;;;;24.20;52.50;101386.28;5023002;28;51353;-60
2021/08/10 10:23:03;;;;;;;;;5.75;4.25;;;;;24.21;52.27;101378.81;5028131;28;51145;-59
2021/08/10 10:25:31;;;;;;;;;4.50;4.00;;;;;24.20;52.61;101372.44;5025930;28;51058;-59
2021/08/10 10:27:59;;;;;;;;;6.00;4.75;;;;;24.21;52.42;101374.13;5029872;28;51788;-59
2021/08/10 10:30:24;;;;;;;;;4.25;4.00;;;;;24.22;52.23;101372.19;5029480;28;51264;-59
2021/08/10 10:32:50;;;;;;;;;6.00;5.25;;;;;24.21;52.00;101376.03;5029461;28;51054;-59
2021/08/10 10:35:18;;;;;;;;;6.75;6.00;;;;;24.22;52.19;101372.19;5029211;28;50982;-59
2021/08/10 10:37:45;;;;;;;;;5.00;4.00;;;;;24.21;52.43;101370.50;5035577;28;51742;-60
2021/08/10 10:40:12;;;;;;;;;5.50;4.00;;;;;24.22;52.35;101366.66;5032668;28;51130;-59
2021/08/10 10:42:39;;;;;;;;;6.00;2.25;;;;;24.22;52.10;101366.66;5027250;28;51106;-60
2021/08/10 10:45:05;;;;;;;;;5.25;5.00;;;;;24.22;52.04;101361.97;5028103;28;52349;-59
2021/08/10 10:47:35;;;;;;;;;4.75;4.00;;;;;24.23;51.66;101357.28;5034975;28;51802;-60
2021/08/10 10:50:00;;;;;;;;;4.25;3.00;;;;;24.24;51.64;101356.19;5029313;28;51171;-59
2021/08/10 10:52:28;;;;;;;;;5.00;5.00;;;;;24.23;51.96;101355.34;5033226;28;51057;-59
2021/08/10 10:54:55;;;;;;;;;4.00;4.00;;;;;24.25;51.98;101355.09;5027664;28;51347;-58
2021/08/10 10:57:32;;;;;;;;;3.75;3.00;;;;;24.25;52.16;101352.34;5024979;28;51924;-59
2021/08/10 11:00:03;;;;;;;;;2.75;2.75;;;;;24.26;52.35;101356.78;5029883;28;51425;-58
2021/08/10 11:02:29;;;;;;;;;3.00;3.00;;;;;24.28;53.20;101349.09;5031938;28;51018;-57
2021/08/10 11:05:04;;;;;;;;;3.25;3.00;;;;;24.29;52.50;101359.97;5023918;28;51019;-58
2021/08/10 11:08:06;;;;;;;;;4.75;4.75;;;;;24.31;53.05;101355.06;5027446;28;51979;-57
2021/08/10 11:10:47;;;;;;;;;8.00;5.00;;;;;24.32;53.03;101351.19;5023357;28;51893;-56
2021/08/10 11:13:19;;;;;;;;;3.50;3.25;;;;;24.34;53.24;101349.03;5031355;28;51134;-58
2021/08/10 11:15:44;;;;;;;;;6.00;3.25;;;;;24.36;53.17;101346.03;5032530;28;51125;-58
2021/08/10 11:18:10;;;;;;;;;5.00;3.75;;;;;24.37;53.17;101351.31;5033132;28;52510;-57
2021/08/10 11:20:44;;;;;;;;;6.00;4.00;;;;;24.38;53.79;101350.22;5033724;28;51078;-58
2021/08/10 11:25:59;;;;;;;;;5.00;4.00;;;;;24.42;53.71;101345.09;5027764;28;52630;-57
2021/08/10 11:28:29;;;;;;;;;4.50;2.75;;;;;24.42;53.75;101351.47;5030036;28;51089;-57